Terminal Aerodrome Forecast
Issued by NWS

Current Version | Previous Version | Text Only | Print | Product List | Glossary On
Versions: 1 2 3 4 5 6 7 8 9 10 11 12 13
000
FTUS42 TJSJ 272300
TAFJPS
TAF
TJPS 272340Z 2800/2824 12006KT P6SM VCSH FEW020 SCT060
     FM280300 05005KT P6SM FEW030 FEW060
     FM281500 13012KT P6SM FEW030 SCT060
     FM282330 VRB04KT P6SM FEW030 FEW060
      AMD NOT SKED TIL 280300=

USA.gov is the U.S. government's official web portal to all federal, state and local government web resources and services.